createdAt,value
2019-03-11T00:02:19.808Z,100801.55
2019-03-11T00:04:49.944Z,100803.81
2019-03-11T00:07:19.405Z,100798.34
2019-03-11T00:09:48.765Z,100796.30
2019-03-11T00:12:18.126Z,100804.70
2019-03-11T00:14:47.409Z,100792.98
2019-03-11T00:17:16.717Z,100806.92
2019-03-11T00:19:46.305Z,100793.47
2019-03-11T00:22:15.746Z,100793.68
2019-03-11T00:24:45.044Z,100797.83
2019-03-11T00:27:14.840Z,100801.20
2019-03-11T00:29:44.157Z,100806.09
2019-03-11T00:32:13.438Z,100801.74
2019-03-11T00:34:42.756Z,100808.25
2019-03-11T00:37:12.113Z,100805.47
2019-03-11T00:39:41.459Z,100804.50
2019-03-11T00:42:12.051Z,100809.53
2019-03-11T00:44:41.394Z,100800.70
2019-03-11T00:47:10.691Z,100800.35
2019-03-11T00:49:40.482Z,100804.81
2019-03-11T00:52:09.834Z,100795.17
2019-03-11T00:54:39.123Z,100791.45
2019-03-11T00:57:08.405Z,100785.28
2019-03-11T00:59:37.761Z,100781.79
2019-03-11T01:02:07.302Z,100771.39
2019-03-11T01:04:37.956Z,100772.21
2019-03-11T01:07:07.305Z,100766.79
2019-03-11T01:09:36.578Z,100761.43
2019-03-11T01:12:08.974Z,100774.37
2019-03-11T01:14:38.238Z,100773.67
2019-03-11T01:17:07.511Z,100772.06
2019-03-11T01:19:37.182Z,100763.82
2019-03-11T01:22:06.629Z,100756.73
2019-03-11T01:24:35.929Z,100753.59
2019-03-11T01:27:05.144Z,100750.56
2019-03-11T01:29:34.462Z,100745.64
2019-03-11T01:32:05.863Z,100737.67
2019-03-11T01:34:35.119Z,100723.55
2019-03-11T01:37:04.431Z,100717.47
2019-03-11T01:39:33.734Z,100722.16
2019-03-11T01:42:03.973Z,100715.21
2019-03-11T01:44:33.661Z,100718.89
2019-03-11T01:47:02.905Z,100717.23
2019-03-11T01:49:32.363Z,100709.07
2019-03-11T01:52:02.893Z,100695.51
2019-03-11T01:54:32.616Z,100684.59
2019-03-11T01:57:01.890Z,100676.52
2019-03-11T01:59:31.185Z,100673.11
2019-03-11T02:02:00.769Z,100661.89
2019-03-11T02:04:30.385Z,100653.46
2019-03-11T02:07:00.556Z,100656.34
2019-03-11T02:09:30.044Z,100634.53
2019-03-11T02:11:59.552Z,100638.52
2019-03-11T02:14:28.941Z,100639.41
2019-03-11T02:16:58.332Z,100641.48
2019-03-11T02:19:27.957Z,100631.55
2019-03-11T02:21:57.280Z,100633.48
2019-03-11T02:24:26.570Z,100627.70
2019-03-11T02:26:55.881Z,100622.19
2019-03-11T02:29:25.587Z,100617.85
2019-03-11T02:31:54.898Z,100623.19
2019-03-11T02:34:24.176Z,100612.40
2019-03-11T02:36:53.474Z,100608.62
2019-03-11T02:39:23.131Z,100623.64
2019-03-11T02:41:52.409Z,100626.19
2019-03-11T02:44:21.709Z,100622.19
2019-03-11T02:46:51.042Z,100605.52
2019-03-11T02:49:20.246Z,100601.69
2019-03-11T02:51:49.549Z,100605.08
2019-03-11T02:54:18.832Z,100594.05
2019-03-11T02:56:48.589Z,100602.67
2019-03-11T02:59:17.907Z,100603.08
2019-03-11T03:02:06.924Z,100597.23
2019-03-11T03:04:40.739Z,100600.04
2019-03-11T03:07:10.014Z,100596.10
2019-03-11T03:09:40.100Z,100599.23
2019-03-11T03:12:09.959Z,100590.19
2019-03-11T03:14:39.233Z,100590.98
2019-03-11T03:17:08.495Z,100580.20
2019-03-11T03:19:37.818Z,100579.48
2019-03-11T03:22:07.491Z,100584.56
2019-03-11T03:24:36.786Z,100579.72
2019-03-11T03:27:06.089Z,100574.88
2019-03-11T03:29:35.339Z,100563.39
2019-03-11T03:32:05.498Z,100571.16
2019-03-11T03:34:34.794Z,100556.94
2019-03-11T03:37:04.090Z,100554.41
2019-03-11T03:39:33.887Z,100561.64
2019-03-11T03:42:06.235Z,100569.92
2019-03-11T03:44:35.508Z,100538.45
2019-03-11T03:47:04.783Z,100540.92
2019-03-11T03:49:34.057Z,100543.38
2019-03-11T03:52:03.910Z,100529.69
2019-03-11T03:54:33.634Z,100549.39
2019-03-11T03:57:02.943Z,100542.01
2019-03-11T03:59:32.213Z,100547.87
2019-03-11T04:02:01.464Z,100567.89
2019-03-11T04:04:30.773Z,100574.19
2019-03-11T04:07:00.080Z,100568.91
2019-03-11T04:09:29.693Z,100533.89
2019-03-11T04:11:59.079Z,100534.33
2019-03-11T04:14:28.383Z,100572.17
2019-03-11T04:16:58.017Z,100551.38
2019-03-11T04:19:29.379Z,100536.66
2019-03-11T04:21:58.394Z,100552.09
2019-03-11T04:24:27.635Z,100555.66
2019-03-11T04:26:56.956Z,100568.81
2019-03-11T04:29:26.401Z,100566.26
2019-03-11T04:31:55.750Z,100555.20
2019-03-11T04:34:25.046Z,100560.07
2019-03-11T04:36:54.331Z,100543.62
2019-03-11T04:39:23.962Z,100564.39
2019-03-11T04:41:53.239Z,100548.69
2019-03-11T04:44:22.544Z,100535.44
2019-03-11T04:46:52.262Z,100532.03
2019-03-11T04:49:21.598Z,100535.61
2019-03-11T04:51:51.337Z,100547.03
2019-03-11T04:54:20.782Z,100563.54
2019-03-11T04:56:50.564Z,100575.87
2019-03-11T04:59:19.809Z,100585.55
2019-03-11T05:01:49.076Z,100587.56
2019-03-11T05:04:18.425Z,100594.00
2019-03-11T05:06:53.730Z,100596.52
2019-03-11T05:09:23.048Z,100594.33
2019-03-11T05:11:52.354Z,100582.74
2019-03-11T05:14:21.636Z,100588.53
2019-03-11T05:16:50.941Z,100596.25
2019-03-11T05:19:20.188Z,100581.88
2019-03-11T05:21:49.788Z,100588.92
2019-03-11T05:24:19.103Z,100584.44
2019-03-11T05:26:48.398Z,100581.76
2019-03-11T05:29:17.687Z,100582.23
2019-03-11T05:31:47.078Z,100575.72
2019-03-11T05:34:18.377Z,100583.56
2019-03-11T05:36:47.387Z,100586.41
2019-03-11T05:39:17.044Z,100583.27
2019-03-11T05:41:46.339Z,100598.85
2019-03-11T05:44:15.622Z,100585.61
2019-03-11T05:46:44.915Z,100591.80
2019-03-11T05:49:14.277Z,100591.99
2019-03-11T05:51:43.596Z,100595.90
2019-03-11T05:54:13.367Z,100617.66
2019-03-11T05:56:42.635Z,100615.68
2019-03-11T05:59:11.933Z,100629.52
2019-03-11T06:01:41.471Z,100611.71
2019-03-11T06:04:10.714Z,100606.37
2019-03-11T06:06:40.480Z,100614.75
2019-03-11T06:09:09.929Z,100605.02
2019-03-11T06:11:39.225Z,100611.22
2019-03-11T06:14:08.969Z,100614.55
2019-03-11T06:16:38.359Z,100614.88
2019-03-11T06:19:07.628Z,100621.08
2019-03-11T06:21:46.033Z,100619.04
2019-03-11T06:24:15.345Z,100625.19
2019-03-11T06:26:44.632Z,100619.48
2019-03-11T06:29:13.978Z,100612.81
2019-03-11T06:31:43.294Z,100617.24
2019-03-11T06:34:13.103Z,100620.70
2019-03-11T06:36:42.438Z,100623.68
2019-03-11T06:39:11.717Z,100626.80
2019-03-11T06:41:41.375Z,100633.50
2019-03-11T06:44:10.813Z,100631.97
2019-03-11T06:46:40.270Z,100650.67
2019-03-11T06:49:09.961Z,100652.59
2019-03-11T06:51:39.333Z,100653.53
2019-03-11T06:54:08.651Z,100663.27
2019-03-11T06:56:39.770Z,100668.34
2019-03-11T06:59:09.078Z,100662.40
2019-03-11T07:01:38.416Z,100673.45
2019-03-11T07:04:08.188Z,100671.15
2019-03-11T07:06:37.516Z,100684.91
2019-03-11T07:09:08.580Z,100678.41
2019-03-11T07:11:38.340Z,100677.41
2019-03-11T07:14:08.656Z,100679.47
2019-03-11T07:16:37.984Z,100680.33
2019-03-11T07:19:07.664Z,100676.79
2019-03-11T07:21:37.005Z,100682.08
2019-03-11T07:24:06.311Z,100689.45
2019-03-11T07:26:35.962Z,100694.48
2019-03-11T07:29:05.296Z,100675.80
2019-03-11T07:31:34.637Z,100685.48
2019-03-11T07:34:05.304Z,100686.23
2019-03-11T07:36:34.748Z,100686.84
2019-03-11T07:39:04.739Z,100681.76
2019-03-11T07:41:34.692Z,100700.50
2019-03-11T07:44:06.916Z,100704.16
2019-03-11T07:46:36.644Z,100707.13
2019-03-11T07:49:05.970Z,100712.09
2019-03-11T07:51:35.444Z,100713.88
2019-03-11T07:54:06.263Z,100697.42
2019-03-11T07:56:35.657Z,100720.97
2019-03-11T07:59:05.219Z,100712.69
2019-03-11T08:01:34.899Z,100724.06
2019-03-11T08:04:06.624Z,100717.84
2019-03-11T08:06:36.077Z,100715.88
2019-03-11T08:09:07.577Z,100718.03
2019-03-11T08:11:36.943Z,100732.81
2019-03-11T08:14:06.382Z,100723.03
2019-03-11T08:16:37.047Z,100732.30
2019-03-11T08:19:06.399Z,100732.30
2019-03-11T08:21:36.003Z,100739.23
2019-03-11T08:24:06.700Z,100734.61
2019-03-11T08:26:36.023Z,100742.45
2019-03-11T08:29:06.092Z,100737.02
2019-03-11T08:31:36.462Z,100734.31
2019-03-11T08:34:06.464Z,100736.52
2019-03-11T08:36:36.113Z,100745.75
2019-03-11T08:39:11.956Z,100737.91
2019-03-11T08:41:41.599Z,100740.78
2019-03-11T08:44:10.987Z,100737.67
2019-03-11T08:46:41.180Z,100748.66
2019-03-11T08:49:10.625Z,100748.16
2019-03-11T08:51:39.943Z,100743.17
2019-03-11T08:54:09.775Z,100740.76
2019-03-11T08:56:39.184Z,100737.70
2019-03-11T08:59:08.587Z,100740.62
2019-03-11T09:01:38.299Z,100741.27
2019-03-11T09:04:08.712Z,100750.61
2019-03-11T09:06:38.583Z,100749.05
2019-03-11T09:09:09.174Z,100763.08
2019-03-11T09:11:38.932Z,100775.70
2019-03-11T09:14:08.495Z,100764.58
2019-03-11T09:16:38.315Z,100763.62
2019-03-11T09:19:07.734Z,100762.63
2019-03-11T09:21:37.088Z,100764.26
2019-03-11T09:24:18.395Z,100761.12
2019-03-11T09:26:38.321Z,100769.89
2019-03-11T09:29:07.668Z,100771.70
2019-03-11T09:31:37.533Z,100772.08
2019-03-11T09:34:07.128Z,100782.19
2019-03-11T09:36:36.548Z,100784.11
2019-03-11T09:39:09.574Z,100796.08
2019-03-11T09:41:39.045Z,100778.19
2019-03-11T09:44:08.417Z,100787.63
2019-03-11T09:46:38.275Z,100791.46
2019-03-11T09:49:07.686Z,100781.58
2019-03-11T09:51:36.968Z,100776.77
2019-03-11T09:54:09.522Z,100773.22
2019-03-11T09:56:43.204Z,100770.19
2019-03-11T09:59:09.969Z,100764.53
2019-03-11T10:01:39.826Z,100764.44
2019-03-11T10:04:09.351Z,100767.34
2019-03-11T10:06:38.649Z,100771.95
2019-03-11T10:09:09.002Z,100783.01
2019-03-11T10:11:38.395Z,100782.48
2019-03-11T10:14:07.903Z,100794.36
2019-03-11T10:16:37.742Z,100789.16
2019-03-11T10:19:07.161Z,100803.11
2019-03-11T10:21:36.910Z,100799.49
2019-03-11T10:24:06.640Z,100804.49
2019-03-11T10:26:36.083Z,100807.25
2019-03-11T10:29:05.416Z,100816.82
2019-03-11T10:31:35.238Z,100820.13
2019-03-11T10:34:05.247Z,100814.03
2019-03-11T10:36:34.568Z,100832.66
2019-03-11T10:39:05.633Z,100829.67
2019-03-11T10:41:35.070Z,100834.45
2019-03-11T10:44:07.434Z,100840.84
2019-03-11T10:46:37.442Z,100839.94
2019-03-11T10:49:07.004Z,100853.03
2019-03-11T10:51:36.576Z,100857.89
2019-03-11T10:54:09.638Z,100856.03
2019-03-11T10:56:39.068Z,100862.97
2019-03-11T10:59:08.508Z,100864.90
2019-03-11T11:01:38.308Z,100870.45
2019-03-11T11:04:07.880Z,100866.17
2019-03-11T11:06:37.289Z,100863.80
2019-03-11T11:09:07.894Z,100856.73
2019-03-11T11:11:37.288Z,100863.70
2019-03-11T11:14:06.643Z,100863.66
2019-03-11T11:16:36.359Z,100877.00
2019-03-11T11:19:05.872Z,100865.23
2019-03-11T11:21:35.329Z,100866.63
2019-03-11T11:24:07.886Z,100871.19
2019-03-11T11:26:37.747Z,100872.28
2019-03-11T11:29:07.203Z,100877.36
2019-03-11T11:31:37.118Z,100880.84
2019-03-11T11:34:09.537Z,100881.94
2019-03-11T11:36:39.040Z,100876.14
2019-03-11T11:39:09.180Z,100887.73
2019-03-11T11:41:38.733Z,100885.59
2019-03-11T11:44:08.088Z,100900.41
2019-03-11T11:46:38.080Z,100892.84
2019-03-11T11:49:08.000Z,100907.83
2019-03-11T11:54:17.612Z,100899.33
2019-03-11T11:56:46.929Z,100903.57
2019-03-11T11:59:17.769Z,100909.55
2019-03-11T12:01:47.250Z,100909.55
2019-03-11T12:04:16.706Z,100907.42
2019-03-11T12:06:46.224Z,100914.84
2019-03-11T12:09:15.897Z,100900.25
2019-03-11T12:11:46.809Z,100897.45
2019-03-11T12:14:16.169Z,100912.32
2019-03-11T12:16:45.809Z,100911.92
2019-03-11T12:19:16.920Z,100907.41
2019-03-11T12:21:49.059Z,100913.78
2019-03-11T12:24:18.556Z,100908.30
2019-03-11T12:26:48.017Z,100917.25
2019-03-11T12:29:17.845Z,100899.72
2019-03-11T12:31:50.573Z,100907.89
2019-03-11T12:34:19.904Z,100920.55
2019-03-11T12:36:49.305Z,100913.03
2019-03-11T12:39:19.185Z,100908.44
2019-03-11T12:41:48.676Z,100929.75
2019-03-11T12:44:18.027Z,100943.06
2019-03-11T12:46:47.855Z,100932.08
2019-03-11T12:49:17.474Z,100940.82
2019-03-11T12:51:50.052Z,100939.20
2019-03-11T12:54:18.411Z,100942.64
2019-03-11T12:56:47.751Z,100939.56
2019-03-11T12:59:17.094Z,100940.94
2019-03-11T13:01:47.070Z,100932.89
2019-03-11T13:04:16.488Z,100949.66
2019-03-11T13:06:46.127Z,100938.24
2019-03-11T13:09:17.729Z,100944.59
2019-03-11T13:11:49.615Z,100949.61
2019-03-11T13:14:19.034Z,100944.77
2019-03-11T13:16:48.512Z,100946.73
2019-03-11T13:19:18.508Z,100945.36
2019-03-11T13:21:48.851Z,100951.55
2019-03-11T13:24:18.311Z,100949.91
2019-03-11T13:29:20.891Z,100955.41
2019-03-11T13:31:50.275Z,100950.22
2019-03-11T13:34:20.228Z,100957.97
2019-03-11T13:36:49.702Z,100958.09
2019-03-11T13:39:19.049Z,100965.84
2019-03-11T13:41:48.652Z,100960.69
2019-03-11T13:44:18.391Z,100967.02
2019-03-11T13:46:49.323Z,100958.75
2019-03-11T13:49:18.805Z,100968.66
2019-03-11T13:51:48.518Z,100967.36
2019-03-11T13:54:18.019Z,100980.17
2019-03-11T13:56:47.389Z,100981.97
2019-03-11T13:59:17.211Z,100981.45
2019-03-11T14:01:46.543Z,100992.34
2019-03-11T14:04:15.910Z,100997.50
2019-03-11T14:06:46.635Z,100992.68
2019-03-11T14:09:15.919Z,101006.61
2019-03-11T14:11:45.386Z,101013.59
2019-03-11T14:14:15.172Z,101010.70
2019-03-11T14:16:44.700Z,101009.14
2019-03-11T14:19:14.118Z,101008.38
2019-03-11T14:21:44.088Z,101010.45
2019-03-11T14:24:13.648Z,101012.09
2019-03-11T14:26:43.348Z,101009.06
2019-03-11T14:29:13.399Z,101001.81
2019-03-11T14:31:43.139Z,101000.01
2019-03-11T14:34:14.051Z,100998.59
2019-03-11T14:36:44.652Z,101011.70
2019-03-11T14:39:14.136Z,101015.65
2019-03-11T14:41:43.585Z,101032.80
2019-03-11T14:44:14.641Z,101031.36
2019-03-11T14:46:44.060Z,101014.41
2019-03-11T14:49:13.592Z,101026.22
2019-03-11T14:51:43.670Z,101038.76
2019-03-11T14:54:13.242Z,101030.50
2019-03-11T14:56:42.668Z,101038.19
2019-03-11T14:59:14.211Z,101030.17
2019-03-11T15:01:43.945Z,101034.03
2019-03-11T15:04:13.679Z,101030.05
2019-03-11T15:06:43.432Z,101027.88
2019-03-11T15:09:13.068Z,101047.53
2019-03-11T15:11:42.585Z,101049.47
2019-03-11T15:14:12.845Z,101044.95
2019-03-11T15:16:42.843Z,101058.05
2019-03-11T15:19:12.238Z,101081.09
2019-03-11T15:21:42.182Z,101086.60
2019-03-11T15:24:11.564Z,101088.73
2019-03-11T15:26:41.360Z,101072.33
2019-03-11T15:29:10.863Z,101062.84
2019-03-11T15:31:40.376Z,101051.41
2019-03-11T15:34:10.400Z,101043.26
2019-03-11T15:36:40.257Z,101045.65
2019-03-11T15:39:09.900Z,101041.97
2019-03-11T15:41:39.939Z,101048.48
2019-03-11T15:44:09.517Z,101041.84
2019-03-11T15:46:39.760Z,101034.80
2019-03-11T15:49:11.327Z,101037.89
2019-03-11T15:51:41.305Z,101055.75
2019-03-11T15:54:11.236Z,101055.22
2019-03-11T15:56:41.797Z,101053.30
2019-03-11T15:59:11.673Z,101069.52
2019-03-11T16:01:41.422Z,101076.07
2019-03-11T16:04:11.755Z,101074.08
2019-03-11T16:06:41.471Z,101075.62
2019-03-11T16:09:19.072Z,101074.28
2019-03-11T16:11:42.962Z,101072.87
2019-03-11T16:14:13.752Z,101076.64
2019-03-11T16:16:44.236Z,101084.13
2019-03-11T16:19:14.173Z,101085.28
2019-03-11T16:21:44.505Z,101082.52
2019-03-11T16:24:15.113Z,101082.47
2019-03-11T16:26:46.657Z,101084.10
2019-03-11T16:29:17.034Z,101081.67
2019-03-11T16:31:47.741Z,101100.60
2019-03-11T16:34:17.614Z,101091.28
2019-03-11T16:36:51.994Z,101106.94
2019-03-11T16:39:24.475Z,101118.17
2019-03-11T16:41:55.287Z,101129.98
2019-03-11T16:44:25.490Z,101129.55
2019-03-11T16:46:56.080Z,101151.66
2019-03-11T16:49:26.384Z,101149.77
2019-03-11T16:51:56.773Z,101158.39
2019-03-11T16:54:28.315Z,101155.91
2019-03-11T16:56:58.054Z,101152.09
2019-03-11T16:59:28.326Z,101157.69
2019-03-11T17:02:00.889Z,101166.31
2019-03-11T17:04:31.212Z,101165.56
2019-03-11T17:07:01.184Z,101164.77
2019-03-11T17:09:31.345Z,101168.67
2019-03-11T17:12:01.238Z,101162.63
2019-03-11T17:14:31.433Z,101165.80
2019-03-11T17:17:01.940Z,101172.67
2019-03-11T17:19:32.070Z,101175.70
2019-03-11T17:22:03.985Z,101181.86
2019-03-11T17:24:34.639Z,101192.02
2019-03-11T17:27:06.558Z,101192.27
2019-03-11T17:29:38.184Z,101189.52
2019-03-11T17:32:08.594Z,101189.56
2019-03-11T17:34:38.530Z,101200.91
2019-03-11T17:37:08.437Z,101192.05
2019-03-11T17:39:39.332Z,101199.06
2019-03-11T17:42:09.571Z,101208.80
2019-03-11T17:44:39.537Z,101229.22
2019-03-11T17:47:10.060Z,101239.55
2019-03-11T17:49:39.986Z,101229.72
2019-03-11T17:52:09.794Z,101243.97
2019-03-11T17:54:40.354Z,101259.14
2019-03-11T17:57:10.664Z,101249.25
2019-03-11T17:59:40.615Z,101264.53
2019-03-11T18:02:11.293Z,101267.67
2019-03-11T18:04:41.210Z,101275.19
2019-03-11T18:07:11.336Z,101275.41
2019-03-11T18:09:41.707Z,101286.47
2019-03-11T18:12:11.721Z,101289.52
2019-03-11T18:14:41.881Z,101292.25
2019-03-11T18:17:12.122Z,101291.91
2019-03-11T18:19:42.061Z,101312.33
2019-03-11T18:22:12.396Z,101300.72
2019-03-11T18:24:44.012Z,101303.56
2019-03-11T18:27:15.013Z,101310.72
2019-03-11T18:29:44.973Z,101309.64
2019-03-11T18:32:21.224Z,101308.78
2019-03-11T18:34:51.160Z,101311.69
2019-03-11T18:37:21.226Z,101324.02
2019-03-11T18:39:51.598Z,101323.73
2019-03-11T18:42:26.204Z,101320.97
2019-03-11T18:44:53.484Z,101327.98
2019-03-11T18:47:23.469Z,101330.78
2019-03-11T18:49:54.135Z,101338.38
2019-03-11T18:52:24.446Z,101349.70
2019-03-11T18:54:54.539Z,101350.03
2019-03-11T18:57:24.490Z,101341.23
2019-03-11T18:59:55.758Z,101333.59
2019-03-11T19:02:25.813Z,101330.45
2019-03-11T19:04:56.020Z,101339.02
2019-03-11T19:07:26.633Z,101336.53
2019-03-11T19:09:56.588Z,101334.95
2019-03-11T19:12:27.867Z,101343.75
2019-03-11T19:14:58.405Z,101339.02
2019-03-11T19:17:28.370Z,101345.73
2019-03-11T19:19:59.906Z,101351.68
2019-03-11T19:22:30.563Z,101348.29
2019-03-11T19:25:00.655Z,101340.61
2019-03-11T19:27:31.111Z,101344.16
2019-03-11T19:30:02.572Z,101344.28
2019-03-11T19:32:32.904Z,101347.84
2019-03-11T19:35:03.214Z,101356.46
2019-03-11T19:37:33.181Z,101353.30
2019-03-11T19:40:05.051Z,101354.00
2019-03-11T19:42:35.640Z,101360.58
2019-03-11T19:45:06.562Z,101378.63
2019-03-11T19:47:36.779Z,101365.44
2019-03-11T19:50:08.945Z,101379.14
2019-03-11T19:52:39.328Z,101372.27
2019-03-11T19:55:11.659Z,101372.23
2019-03-11T19:57:42.526Z,101371.27
2019-03-11T20:00:15.564Z,101363.66
2019-03-11T20:02:45.908Z,101375.97
2019-03-11T20:05:17.135Z,101381.36
2019-03-11T20:07:47.669Z,101381.88
2019-03-11T20:10:18.100Z,101379.50
2019-03-11T20:12:48.531Z,101393.28
2019-03-11T20:15:18.530Z,101391.41
2019-03-11T20:17:48.694Z,101390.53
2019-03-11T20:20:19.158Z,101415.30
2019-03-11T20:22:49.328Z,101414.93
2019-03-11T20:25:22.014Z,101413.12
2019-03-11T20:27:52.413Z,101415.63
2019-03-11T20:30:22.718Z,101418.14
2019-03-11T20:32:54.098Z,101403.13
2019-03-11T20:35:24.351Z,101423.40
2019-03-11T20:37:54.678Z,101419.91
2019-03-11T20:40:25.191Z,101412.76
2019-03-11T20:42:57.873Z,101429.91
2019-03-11T20:45:28.346Z,101423.51
2019-03-11T20:47:59.370Z,101422.47
2019-03-11T20:50:41.540Z,101433.27
2019-03-11T20:53:05.401Z,101422.95
2019-03-11T20:55:34.575Z,101435.48
2019-03-11T20:58:09.715Z,101438.27
2019-03-11T21:00:39.824Z,101441.82
2019-03-11T21:03:10.657Z,101450.78
2019-03-11T21:05:42.497Z,101454.83
2019-03-11T21:08:13.671Z,101461.75
2019-03-11T21:10:44.734Z,101456.36
2019-03-11T21:13:14.746Z,101458.39
2019-03-11T21:15:45.915Z,101465.12
2019-03-11T21:18:17.048Z,101472.86
2019-03-11T21:20:49.190Z,101473.67
2019-03-11T21:23:26.382Z,101482.81
2019-03-11T21:25:57.214Z,101481.20
2019-03-11T21:28:28.303Z,101484.28
2019-03-11T21:31:01.045Z,101471.84
2019-03-11T21:33:31.442Z,101478.23
2019-03-11T21:36:07.798Z,101485.95
2019-03-11T21:38:44.037Z,101478.13
2019-03-11T21:41:14.352Z,101481.80
2019-03-11T21:43:44.781Z,101488.63
2019-03-11T21:46:14.310Z,101485.73
2019-03-11T21:48:43.919Z,101488.98
2019-03-11T21:51:13.972Z,101483.22
2019-03-11T21:53:43.518Z,101490.38
2019-03-11T21:56:12.948Z,101489.98
2019-03-11T21:58:42.713Z,101496.22
2019-03-11T22:01:13.946Z,101501.47
2019-03-11T22:03:44.046Z,101496.91
2019-03-11T22:06:14.122Z,101497.02
2019-03-11T22:08:43.513Z,101499.44
2019-03-11T22:11:13.023Z,101503.91
2019-03-11T22:13:42.748Z,101503.50
2019-03-11T22:16:12.099Z,101503.73
2019-03-11T22:18:41.526Z,101502.11
2019-03-11T22:21:11.237Z,101506.80
2019-03-11T22:23:42.113Z,101501.30
2019-03-11T22:26:11.702Z,101508.61
2019-03-11T22:28:41.497Z,101509.95
2019-03-11T22:31:10.940Z,101511.55
2019-03-11T22:33:41.153Z,101526.22
2019-03-11T22:36:10.446Z,101532.33
2019-03-11T22:38:39.814Z,101535.92
2019-03-11T22:41:10.237Z,101546.13
2019-03-11T22:43:39.756Z,101545.92
2019-03-11T22:46:10.209Z,101546.13
2019-03-11T22:48:44.816Z,101544.70
2019-03-11T22:51:22.115Z,101546.27
2019-03-11T22:53:52.261Z,101545.70
2019-03-11T22:56:22.381Z,101547.30
2019-03-11T22:58:52.384Z,101547.84
2019-03-11T23:01:21.879Z,101549.61
2019-03-11T23:03:51.681Z,101551.72
2019-03-11T23:06:21.096Z,101559.94
2019-03-11T23:08:50.479Z,101556.16
2019-03-11T23:11:19.787Z,101556.09
2019-03-11T23:13:49.073Z,101557.77
2019-03-11T23:16:19.873Z,101560.64
2019-03-11T23:18:49.433Z,101573.03
2019-03-11T23:21:18.766Z,101569.46
2019-03-11T23:23:50.593Z,101573.53
2019-03-11T23:26:19.920Z,101582.86
2019-03-11T23:28:49.764Z,101584.20
2019-03-11T23:31:19.129Z,101581.96
2019-03-11T23:33:48.495Z,101586.66
2019-03-11T23:36:18.135Z,101591.45
2019-03-11T23:38:50.114Z,101587.20
2019-03-11T23:41:21.747Z,101576.98
2019-03-11T23:43:51.646Z,101576.25
2019-03-11T23:46:23.427Z,101582.95
2019-03-11T23:48:52.717Z,101582.40
2019-03-11T23:51:22.040Z,101584.02
2019-03-11T23:53:51.389Z,101580.63
2019-03-11T23:56:20.755Z,101580.88
2019-03-11T23:58:50.056Z,101584.08
